sensor_id;sensor_type;location;lat;lon;timestamp;pressure;altitude;pressure_sealevel;temperature;humidity
28935;BME280;16044;52.726;-2.108;2022-10-16T00:01:31;99106.16;;;9.11;87.20
28935;BME280;16044;52.726;-2.108;2022-10-16T00:03:59;99116.34;;;9.09;87.19
28935;BME280;16044;52.726;-2.108;2022-10-16T00:06:27;99107.38;;;9.09;87.24
28935;BME280;16044;52.726;-2.108;2022-10-16T00:08:55;99104.25;;;9.05;87.26
28935;BME280;16044;52.726;-2.108;2022-10-16T00:11:26;99116.34;;;9.09;87.30
28935;BME280;16044;52.726;-2.108;2022-10-16T00:13:58;99111.78;;;9.10;87.07
28935;BME280;16044;52.726;-2.108;2022-10-16T00:16:27;99117.19;;;9.16;87.16
28935;BME280;16044;52.726;-2.108;2022-10-16T00:18:55;99109.72;;;9.18;86.61
28935;BME280;16044;52.726;-2.108;2022-10-16T00:21:24;99115.97;;;9.26;86.57
28935;BME280;16044;52.726;-2.108;2022-10-16T00:23:57;99128.06;;;9.30;86.42
28935;BME280;16044;52.726;-2.108;2022-10-16T00:26:27;99124.56;;;9.36;85.96
28935;BME280;16044;52.726;-2.108;2022-10-16T00:28:55;99143.06;;;9.39;85.85
28935;BME280;16044;52.726;-2.108;2022-10-16T00:31:24;99149.34;;;9.46;85.53
28935;BME280;16044;52.726;-2.108;2022-10-16T00:33:51;99147.06;;;9.50;86.00
28935;BME280;16044;52.726;-2.108;2022-10-16T00:36:20;99149.59;;;9.51;86.25
28935;BME280;16044;52.726;-2.108;2022-10-16T00:38:54;99148.97;;;9.49;86.74
28935;BME280;16044;52.726;-2.108;2022-10-16T00:41:23;99143.34;;;9.51;86.76
28935;BME280;16044;52.726;-2.108;2022-10-16T00:43:55;99146.88;;;9.51;86.66
28935;BME280;16044;52.726;-2.108;2022-10-16T00:46:40;99161.03;;;9.53;86.43
28935;BME280;16044;52.726;-2.108;2022-10-16T00:49:11;99164.75;;;9.52;86.27
28935;BME280;16044;52.726;-2.108;2022-10-16T00:51:50;99179.34;;;9.51;85.95
28935;BME280;16044;52.726;-2.108;2022-10-16T00:54:26;99186.81;;;9.49;85.92
28935;BME280;16044;52.726;-2.108;2022-10-16T00:57:01;99188.66;;;9.49;85.24
28935;BME280;16044;52.726;-2.108;2022-10-16T00:59:34;99182.63;;;9.47;85.34
28935;BME280;16044;52.726;-2.108;2022-10-16T01:02:05;99183.00;;;9.37;85.49
28935;BME280;16044;52.726;-2.108;2022-10-16T01:04:53;99193.00;;;9.43;84.85
28935;BME280;16044;52.726;-2.108;2022-10-16T01:13:18;99216.09;;;9.39;85.21
28935;BME280;16044;52.726;-2.108;2022-10-16T01:15:59;99244.19;;;9.38;84.97
28935;BME280;16044;52.726;-2.108;2022-10-16T01:18:37;99240.25;;;9.41;85.05
28935;BME280;16044;52.726;-2.108;2022-10-16T01:21:24;99224.63;;;9.36;85.99
28935;BME280;16044;52.726;-2.108;2022-10-16T01:27:09;99205.84;;;9.28;85.98
28935;BME280;16044;52.726;-2.108;2022-10-16T01:30:04;99210.03;;;9.30;85.98
28935;BME280;16044;52.726;-2.108;2022-10-16T01:32:38;99206.06;;;9.26;86.02
28935;BME280;16044;52.726;-2.108;2022-10-16T01:35:09;99220.56;;;9.18;85.98
28935;BME280;16044;52.726;-2.108;2022-10-16T01:37:44;99222.19;;;9.13;86.63
28935;BME280;16044;52.726;-2.108;2022-10-16T01:40:16;99226.94;;;9.11;86.71
28935;BME280;16044;52.726;-2.108;2022-10-16T01:42:50;99228.56;;;9.05;87.05
28935;BME280;16044;52.726;-2.108;2022-10-16T01:45:20;99234.41;;;9.02;87.33
28935;BME280;16044;52.726;-2.108;2022-10-16T01:47:48;99250.75;;;8.94;87.38
28935;BME280;16044;52.726;-2.108;2022-10-16T01:50:18;99247.63;;;8.90;87.41
28935;BME280;16044;52.726;-2.108;2022-10-16T01:52:51;99237.59;;;8.84;87.59
28935;BME280;16044;52.726;-2.108;2022-10-16T01:55:23;99247.09;;;8.73;87.95
28935;BME280;16044;52.726;-2.108;2022-10-16T01:57:54;99249.97;;;8.72;87.77
28935;BME280;16044;52.726;-2.108;2022-10-16T02:00:22;99248.47;;;8.69;87.79
28935;BME280;16044;52.726;-2.108;2022-10-16T02:02:51;99255.31;;;8.65;87.97
28935;BME280;16044;52.726;-2.108;2022-10-16T02:07:57;99255.06;;;8.60;88.15
28935;BME280;16044;52.726;-2.108;2022-10-16T02:10:28;99261.50;;;8.59;88.72
28935;BME280;16044;52.726;-2.108;2022-10-16T02:14:00;99270.38;;;8.53;88.23
28935;BME280;16044;52.726;-2.108;2022-10-16T02:16:15;99266.81;;;8.52;88.25
28935;BME280;16044;52.726;-2.108;2022-10-16T02:18:43;99273.00;;;8.46;88.28
28935;BME280;16044;52.726;-2.108;2022-10-16T02:24:04;99279.69;;;8.35;88.70
28935;BME280;16044;52.726;-2.108;2022-10-16T02:27:05;99288.22;;;8.32;88.57
28935;BME280;16044;52.726;-2.108;2022-10-16T02:29:41;99296.31;;;8.32;88.10
28935;BME280;16044;52.726;-2.108;2022-10-16T02:32:20;99298.28;;;8.24;88.55
28935;BME280;16044;52.726;-2.108;2022-10-16T02:34:49;99304.31;;;8.26;88.50
28935;BME280;16044;52.726;-2.108;2022-10-16T02:37:17;99309.66;;;8.19;88.80
28935;BME280;16044;52.726;-2.108;2022-10-16T02:39:45;99315.81;;;8.13;89.29
28935;BME280;16044;52.726;-2.108;2022-10-16T02:42:13;99327.44;;;8.13;89.00
28935;BME280;16044;52.726;-2.108;2022-10-16T02:44:40;99317.84;;;8.11;88.86
28935;BME280;16044;52.726;-2.108;2022-10-16T02:47:07;99319.91;;;8.09;88.69
28935;BME280;16044;52.726;-2.108;2022-10-16T02:49:34;99332.94;;;8.05;88.90
28935;BME280;16044;52.726;-2.108;2022-10-16T02:52:02;99335.19;;;8.02;88.97
28935;BME280;16044;52.726;-2.108;2022-10-16T02:54:29;99339.28;;;7.97;89.14
28935;BME280;16044;52.726;-2.108;2022-10-16T02:56:56;99345.72;;;7.96;88.97
28935;BME280;16044;52.726;-2.108;2022-10-16T02:59:23;99353.34;;;7.93;89.07
28935;BME280;16044;52.726;-2.108;2022-10-16T03:01:50;99357.44;;;7.89;89.47
28935;BME280;16044;52.726;-2.108;2022-10-16T03:04:17;99363.03;;;7.87;89.81
28935;BME280;16044;52.726;-2.108;2022-10-16T03:06:43;99362.38;;;7.85;90.17
28935;BME280;16044;52.726;-2.108;2022-10-16T03:09:10;99374.81;;;7.86;89.91
28935;BME280;16044;52.726;-2.108;2022-10-16T03:11:37;99375.56;;;7.80;90.33
28935;BME280;16044;52.726;-2.108;2022-10-16T03:14:04;99377.28;;;7.81;89.96
28935;BME280;16044;52.726;-2.108;2022-10-16T03:16:31;99380.50;;;7.76;90.32
28935;BME280;16044;52.726;-2.108;2022-10-16T03:18:58;99386.75;;;7.77;90.23
28935;BME280;16044;52.726;-2.108;2022-10-16T03:21:25;99388.41;;;7.78;90.09
28935;BME280;16044;52.726;-2.108;2022-10-16T03:23:52;99391.47;;;7.75;90.11
28935;BME280;16044;52.726;-2.108;2022-10-16T03:26:18;99398.75;;;7.74;90.13
28935;BME280;16044;52.726;-2.108;2022-10-16T03:28:45;99406.00;;;7.74;90.23
28935;BME280;16044;52.726;-2.108;2022-10-16T03:31:12;99405.34;;;7.72;90.60
28935;BME280;16044;52.726;-2.108;2022-10-16T03:33:39;99409.72;;;7.73;90.82
28935;BME280;16044;52.726;-2.108;2022-10-16T03:36:06;99415.97;;;7.73;91.00
28935;BME280;16044;52.726;-2.108;2022-10-16T03:38:33;99420.50;;;7.73;90.75
28935;BME280;16044;52.726;-2.108;2022-10-16T03:41:00;99428.59;;;7.73;90.61
28935;BME280;16044;52.726;-2.108;2022-10-16T03:43:27;99436.03;;;7.71;90.83
28935;BME280;16044;52.726;-2.108;2022-10-16T03:45:54;99437.06;;;7.70;91.01
28935;BME280;16044;52.726;-2.108;2022-10-16T03:48:20;99447.22;;;7.68;91.40
28935;BME280;16044;52.726;-2.108;2022-10-16T03:50:47;99460.97;;;7.73;91.31
28935;BME280;16044;52.726;-2.108;2022-10-16T03:53:14;99471.94;;;7.71;91.45
28935;BME280;16044;52.726;-2.108;2022-10-16T03:55:42;99470.25;;;7.70;91.40
28935;BME280;16044;52.726;-2.108;2022-10-16T03:58:10;99475.47;;;7.72;91.05
28935;BME280;16044;52.726;-2.108;2022-10-16T04:00:41;99476.50;;;7.71;91.13
28935;BME280;16044;52.726;-2.108;2022-10-16T04:03:10;99475.19;;;7.67;90.95
28935;BME280;16044;52.726;-2.108;2022-10-16T04:05:37;99479.94;;;7.65;91.08
28935;BME280;16044;52.726;-2.108;2022-10-16T04:08:04;99496.09;;;7.65;91.19
28935;BME280;16044;52.726;-2.108;2022-10-16T04:10:31;99492.75;;;7.63;90.92
28935;BME280;16044;52.726;-2.108;2022-10-16T04:12:58;99507.25;;;7.61;90.92
28935;BME280;16044;52.726;-2.108;2022-10-16T04:15:25;99506.78;;;7.58;90.85
28935;BME280;16044;52.726;-2.108;2022-10-16T04:17:52;99505.09;;;7.57;90.87
28935;BME280;16044;52.726;-2.108;2022-10-16T04:20:19;99507.16;;;7.55;90.95
28935;BME280;16044;52.726;-2.108;2022-10-16T04:22:46;99514.75;;;7.51;90.85
28935;BME280;16044;52.726;-2.108;2022-10-16T04:25:13;99518.28;;;7.52;90.79
28935;BME280;16044;52.726;-2.108;2022-10-16T04:27:40;99525.25;;;7.46;91.41
28935;BME280;16044;52.726;-2.108;2022-10-16T04:30:11;99531.50;;;7.47;91.18
28935;BME280;16044;52.726;-2.108;2022-10-16T04:32:38;99539.09;;;7.43;91.05
28935;BME280;16044;52.726;-2.108;2022-10-16T04:35:06;99551.53;;;7.44;91.27
28935;BME280;16044;52.726;-2.108;2022-10-16T04:37:33;99547.38;;;7.41;91.18
28935;BME280;16044;52.726;-2.108;2022-10-16T04:40:01;99550.22;;;7.40;91.23
28935;BME280;16044;52.726;-2.108;2022-10-16T04:42:27;99558.31;;;7.40;91.14
28935;BME280;16044;52.726;-2.108;2022-10-16T04:44:54;99567.78;;;7.36;91.16
28935;BME280;16044;52.726;-2.108;2022-10-16T04:47:21;99578.75;;;7.34;91.23
28935;BME280;16044;52.726;-2.108;2022-10-16T04:49:48;99587.66;;;7.35;91.30
28935;BME280;16044;52.726;-2.108;2022-10-16T04:52:15;99588.03;;;7.32;90.83
28935;BME280;16044;52.726;-2.108;2022-10-16T04:54:42;99593.78;;;7.29;90.76
28935;BME280;16044;52.726;-2.108;2022-10-16T04:57:11;99597.84;;;7.25;90.83
28935;BME280;16044;52.726;-2.108;2022-10-16T04:59:38;99607.97;;;7.22;90.49
28935;BME280;16044;52.726;-2.108;2022-10-16T05:02:05;99610.34;;;7.17;90.51
28935;BME280;16044;52.726;-2.108;2022-10-16T05:04:32;99617.94;;;7.14;90.60
28935;BME280;16044;52.726;-2.108;2022-10-16T05:06:59;99613.75;;;7.11;90.54
28935;BME280;16044;52.726;-2.108;2022-10-16T05:09:25;99615.78;;;7.09;90.57
28935;BME280;16044;52.726;-2.108;2022-10-16T05:11:53;99614.25;;;7.07;90.67
28935;BME280;16044;52.726;-2.108;2022-10-16T05:14:19;99624.75;;;7.01;90.77
28935;BME280;16044;52.726;-2.108;2022-10-16T05:16:46;99635.53;;;7.01;90.92
28935;BME280;16044;52.726;-2.108;2022-10-16T05:19:14;99643.13;;;6.98;91.18
28935;BME280;16044;52.726;-2.108;2022-10-16T05:21:53;99644.09;;;6.97;91.01
28935;BME280;16044;52.726;-2.108;2022-10-16T05:24:20;99653.22;;;6.96;90.96
28935;BME280;16044;52.726;-2.108;2022-10-16T05:26:47;99660.16;;;6.90;91.35
28935;BME280;16044;52.726;-2.108;2022-10-16T05:29:14;99663.66;;;6.91;90.84
28935;BME280;16044;52.726;-2.108;2022-10-16T05:31:41;99682.53;;;6.91;90.73
28935;BME280;16044;52.726;-2.108;2022-10-16T05:34:07;99688.25;;;6.88;90.73
28935;BME280;16044;52.726;-2.108;2022-10-16T05:36:34;99703.09;;;6.83;91.04
28935;BME280;16044;52.726;-2.108;2022-10-16T05:39:02;99703.09;;;6.83;91.17
28935;BME280;16044;52.726;-2.108;2022-10-16T05:41:29;99709.31;;;6.84;90.94
28935;BME280;16044;52.726;-2.108;2022-10-16T05:43:56;99705.09;;;6.81;91.12
28935;BME280;16044;52.726;-2.108;2022-10-16T05:46:22;99706.31;;;6.79;90.95
28935;BME280;16044;52.726;-2.108;2022-10-16T05:48:52;99707.47;;;6.76;90.75
28935;BME280;16044;52.726;-2.108;2022-10-16T05:51:19;99722.13;;;6.74;90.42
28935;BME280;16044;52.726;-2.108;2022-10-16T05:53:46;99725.34;;;6.69;90.51
28935;BME280;16044;52.726;-2.108;2022-10-16T05:56:14;99725.69;;;6.66;90.62
28935;BME280;16044;52.726;-2.108;2022-10-16T05:58:41;99725.34;;;6.61;90.13
28935;BME280;16044;52.726;-2.108;2022-10-16T06:01:14;99730.22;;;6.57;90.08
28935;BME280;16044;52.726;-2.108;2022-10-16T06:03:42;99743.16;;;6.54;90.18
28935;BME280;16044;52.726;-2.108;2022-10-16T06:06:11;99747.06;;;6.51;90.34
28935;BME280;16044;52.726;-2.108;2022-10-16T06:08:41;99746.53;;;6.48;90.38
28935;BME280;16044;52.726;-2.108;2022-10-16T06:11:13;99750.59;;;6.43;90.56
28935;BME280;16044;52.726;-2.108;2022-10-16T06:13:59;99745.53;;;6.40;90.52
28935;BME280;16044;52.726;-2.108;2022-10-16T06:16:28;99752.63;;;6.41;90.65
28935;BME280;16044;52.726;-2.108;2022-10-16T06:18:55;99750.09;;;6.40;90.66
28935;BME280;16044;52.726;-2.108;2022-10-16T06:21:24;99754.97;;;6.36;90.38
28935;BME280;16044;52.726;-2.108;2022-10-16T06:23:51;99761.53;;;6.34;90.44
28935;BME280;16044;52.726;-2.108;2022-10-16T06:26:21;99761.69;;;6.32;90.80
28935;BME280;16044;52.726;-2.108;2022-10-16T06:28:50;99762.69;;;6.31;90.99
28935;BME280;16044;52.726;-2.108;2022-10-16T06:31:17;99769.94;;;6.31;90.85
28935;BME280;16044;52.726;-2.108;2022-10-16T06:33:44;99771.13;;;6.28;90.88
28935;BME280;16044;52.726;-2.108;2022-10-16T06:36:16;99786.06;;;6.22;91.38
28935;BME280;16044;52.726;-2.108;2022-10-16T06:38:44;99791.09;;;6.25;91.04
28935;BME280;16044;52.726;-2.108;2022-10-16T06:41:13;99796.00;;;6.22;91.47
28935;BME280;16044;52.726;-2.108;2022-10-16T06:43:45;99802.06;;;6.24;91.56
28935;BME280;16044;52.726;-2.108;2022-10-16T06:46:14;99804.56;;;6.25;91.82
28935;BME280;16044;52.726;-2.108;2022-10-16T06:48:42;99800.56;;;6.30;92.03
28935;BME280;16044;52.726;-2.108;2022-10-16T06:53:45;99807.44;;;6.32;92.20
28935;BME280;16044;52.726;-2.108;2022-10-16T06:56:32;99812.81;;;6.32;92.45
28935;BME280;16044;52.726;-2.108;2022-10-16T06:58:59;99822.59;;;6.33;92.64
28935;BME280;16044;52.726;-2.108;2022-10-16T07:01:27;99839.44;;;6.35;92.77
28935;BME280;16044;52.726;-2.108;2022-10-16T07:03:54;99842.78;;;6.37;92.57
28935;BME280;16044;52.726;-2.108;2022-10-16T07:06:23;99843.47;;;6.39;92.60
28935;BME280;16044;52.726;-2.108;2022-10-16T07:08:52;99846.84;;;6.41;92.44
28935;BME280;16044;52.726;-2.108;2022-10-16T07:11:21;99859.94;;;6.44;92.51
28935;BME280;16044;52.726;-2.108;2022-10-16T07:13:50;99861.63;;;6.46;92.82
28935;BME280;16044;52.726;-2.108;2022-10-16T07:16:24;99862.31;;;6.48;92.76
28935;BME280;16044;52.726;-2.108;2022-10-16T07:18:54;99870.06;;;6.51;92.87
28935;BME280;16044;52.726;-2.108;2022-10-16T07:21:29;99878.81;;;6.53;92.72
28935;BME280;16044;52.726;-2.108;2022-10-16T07:24:04;99872.25;;;6.55;92.67
28935;BME280;16044;52.726;-2.108;2022-10-16T07:26:35;99871.25;;;6.56;92.96
28935;BME280;16044;52.726;-2.108;2022-10-16T07:29:03;99874.47;;;6.60;92.80
28935;BME280;16044;52.726;-2.108;2022-10-16T07:31:30;99877.47;;;6.65;92.81
28935;BME280;16044;52.726;-2.108;2022-10-16T07:33:59;99881.88;;;6.66;93.22
28935;BME280;16044;52.726;-2.108;2022-10-16T07:36:26;99876.84;;;6.71;93.26
28935;BME280;16044;52.726;-2.108;2022-10-16T07:38:53;99882.72;;;6.75;93.26
28935;BME280;16044;52.726;-2.108;2022-10-16T07:41:26;99879.53;;;6.79;93.59
28935;BME280;16044;52.726;-2.108;2022-10-16T07:43:54;99885.41;;;6.83;93.55
28935;BME280;16044;52.726;-2.108;2022-10-16T07:46:23;99910.53;;;7.00;93.22
28935;BME280;16044;52.726;-2.108;2022-10-16T07:48:50;99917.09;;;7.30;92.64
28935;BME280;16044;52.726;-2.108;2022-10-16T07:51:19;99923.28;;;7.55;92.08
28935;BME280;16044;52.726;-2.108;2022-10-16T07:53:48;99935.06;;;7.79;91.43
28935;BME280;16044;52.726;-2.108;2022-10-16T07:56:17;99940.38;;;8.04;91.16
28935;BME280;16044;52.726;-2.108;2022-10-16T07:58:45;99936.94;;;8.26;90.80
28935;BME280;16044;52.726;-2.108;2022-10-16T08:01:14;99941.25;;;8.44;90.52
28935;BME280;16044;52.726;-2.108;2022-10-16T08:03:43;99946.38;;;8.62;90.35
28935;BME280;16044;52.726;-2.108;2022-10-16T08:06:18;99945.81;;;8.74;90.14
28935;BME280;16044;52.726;-2.108;2022-10-16T08:08:52;99944.03;;;8.90;90.06
28935;BME280;16044;52.726;-2.108;2022-10-16T08:11:19;99956.47;;;8.99;89.88
28935;BME280;16044;52.726;-2.108;2022-10-16T08:13:45;99971.91;;;9.13;90.27
28935;BME280;16044;52.726;-2.108;2022-10-16T08:16:12;99988.25;;;9.20;89.65
28935;BME280;16044;52.726;-2.108;2022-10-16T08:18:40;99976.84;;;9.33;89.66
28935;BME280;16044;52.726;-2.108;2022-10-16T08:21:12;99980.19;;;9.35;88.99
28935;BME280;16044;52.726;-2.108;2022-10-16T08:23:46;99994.13;;;9.47;88.71
28935;BME280;16044;52.726;-2.108;2022-10-16T08:26:23;99992.22;;;9.55;88.71
28935;BME280;16044;52.726;-2.108;2022-10-16T08:28:50;99998.56;;;9.63;88.93
28935;BME280;16044;52.726;-2.108;2022-10-16T08:31:18;100002.91;;;9.72;89.01
28935;BME280;16044;52.726;-2.108;2022-10-16T08:33:46;100004.88;;;9.78;88.24
28935;BME280;16044;52.726;-2.108;2022-10-16T08:36:15;100014.28;;;9.82;87.85
28935;BME280;16044;52.726;-2.108;2022-10-16T08:38:42;100012.91;;;9.86;86.78
28935;BME280;16044;52.726;-2.108;2022-10-16T08:43:50;100013.00;;;9.93;86.24
28935;BME280;16044;52.726;-2.108;2022-10-16T08:46:41;100031.22;;;9.99;85.59
28935;BME280;16044;52.726;-2.108;2022-10-16T08:49:23;100037.19;;;9.94;84.78
28935;BME280;16044;52.726;-2.108;2022-10-16T08:51:51;100037.47;;;10.00;84.55
28935;BME280;16044;52.726;-2.108;2022-10-16T08:54:42;100043.63;;;9.93;83.58
28935;BME280;16044;52.726;-2.108;2022-10-16T08:57:19;100046.25;;;10.02;84.46
28935;BME280;16044;52.726;-2.108;2022-10-16T08:59:50;100043.53;;;10.02;84.31
28935;BME280;16044;52.726;-2.108;2022-10-16T09:02:32;100052.13;;;10.05;83.70
28935;BME280;16044;52.726;-2.108;2022-10-16T09:10:32;100060.00;;;10.15;83.53
28935;BME280;16044;52.726;-2.108;2022-10-16T09:16:27;100067.41;;;10.21;83.12
28935;BME280;16044;52.726;-2.108;2022-10-16T09:19:01;100073.28;;;10.25;82.82
28935;BME280;16044;52.726;-2.108;2022-10-16T09:21:38;100084.13;;;10.25;81.98
28935;BME280;16044;52.726;-2.108;2022-10-16T09:24:26;100079.53;;;10.25;81.85
28935;BME280;16044;52.726;-2.108;2022-10-16T09:26:54;100090.38;;;10.25;81.58
28935;BME280;16044;52.726;-2.108;2022-10-16T09:29:21;100088.22;;;10.21;80.83
28935;BME280;16044;52.726;-2.108;2022-10-16T09:31:52;100085.50;;;10.21;81.03
28935;BME280;16044;52.726;-2.108;2022-10-16T09:34:32;100086.53;;;10.20;80.75
28935;BME280;16044;52.726;-2.108;2022-10-16T09:37:04;100091.13;;;10.19;80.68
28935;BME280;16044;52.726;-2.108;2022-10-16T09:39:46;100104.66;;;10.19;80.43
28935;BME280;16044;52.726;-2.108;2022-10-16T09:42:37;100099.59;;;10.16;80.13
28935;BME280;16044;52.726;-2.108;2022-10-16T09:45:03;100109.78;;;10.14;79.73
28935;BME280;16044;52.726;-2.108;2022-10-16T09:47:31;100102.66;;;10.13;80.06
28935;BME280;16044;52.726;-2.108;2022-10-16T09:50:13;100103.72;;;10.12;79.78
28935;BME280;16044;52.726;-2.108;2022-10-16T09:52:47;100092.22;;;10.10;79.23
28935;BME280;16044;52.726;-2.108;2022-10-16T09:55:16;100085.97;;;10.09;79.13
28935;BME280;16044;52.726;-2.108;2022-10-16T09:57:54;100093.06;;;10.10;78.83
28935;BME280;16044;52.726;-2.108;2022-10-16T10:00:23;100103.06;;;10.10;78.86
28935;BME280;16044;52.726;-2.108;2022-10-16T10:02:51;100107.72;;;10.16;78.12
28935;BME280;16044;52.726;-2.108;2022-10-16T10:05:39;100109.44;;;10.17;77.28
28935;BME280;16044;52.726;-2.108;2022-10-16T10:08:15;100109.03;;;10.20;77.72
28935;BME280;16044;52.726;-2.108;2022-10-16T10:10:47;100107.00;;;10.22;77.92
28935;BME280;16044;52.726;-2.108;2022-10-16T10:13:24;100110.34;;;10.24;78.12
28935;BME280;16044;52.726;-2.108;2022-10-16T10:15:53;100115.09;;;10.30;78.01
28935;BME280;16044;52.726;-2.108;2022-10-16T10:18:22;100104.91;;;10.32;77.22
28935;BME280;16044;52.726;-2.108;2022-10-16T10:20:58;100100.50;;;10.31;77.20
28935;BME280;16044;52.726;-2.108;2022-10-16T10:23:28;100100.16;;;10.34;76.67
28935;BME280;16044;52.726;-2.108;2022-10-16T10:26:07;100095.19;;;10.38;76.59
28935;BME280;16044;52.726;-2.108;2022-10-16T10:37:30;100087.81;;;10.47;76.39
28935;BME280;16044;52.726;-2.108;2022-10-16T10:40:22;100087.81;;;10.47;75.97
28935;BME280;16044;52.726;-2.108;2022-10-16T10:45:42;100099.31;;;10.49;75.36
28935;BME280;16044;52.726;-2.108;2022-10-16T10:54:19;100117.28;;;10.80;75.09
28935;BME280;16044;52.726;-2.108;2022-10-16T10:57:02;100113.69;;;10.94;74.43
28935;BME280;16044;52.726;-2.108;2022-10-16T11:02:48;100115.91;;;11.20;72.69
28935;BME280;16044;52.726;-2.108;2022-10-16T11:05:36;100102.31;;;11.35;74.10
28935;BME280;16044;52.726;-2.108;2022-10-16T11:08:13;100094.69;;;11.45;74.17
28935;BME280;16044;52.726;-2.108;2022-10-16T11:10:50;100096.25;;;11.55;73.94
28935;BME280;16044;52.726;-2.108;2022-10-16T11:13:39;100091.38;;;11.65;74.43
28935;BME280;16044;52.726;-2.108;2022-10-16T11:16:20;100094.66;;;11.82;74.44
28935;BME280;16044;52.726;-2.108;2022-10-16T11:18:52;100093.56;;;11.98;74.13
28935;BME280;16044;52.726;-2.108;2022-10-16T11:21:26;100091.78;;;12.12;73.12
28935;BME280;16044;52.726;-2.108;2022-10-16T11:24:01;100098.78;;;12.21;72.66
28935;BME280;16044;52.726;-2.108;2022-10-16T11:26:34;100096.16;;;12.34;72.33
28935;BME280;16044;52.726;-2.108;2022-10-16T11:29:13;100092.44;;;12.42;70.76
28935;BME280;16044;52.726;-2.108;2022-10-16T11:31:51;100103.81;;;12.52;69.14
28935;BME280;16044;52.726;-2.108;2022-10-16T11:34:34;100110.34;;;12.58;68.19
28935;BME280;16044;52.726;-2.108;2022-10-16T11:37:15;100104.94;;;12.64;68.68
28935;BME280;16044;52.726;-2.108;2022-10-16T11:39:45;100110.63;;;12.70;68.45
28935;BME280;16044;52.726;-2.108;2022-10-16T11:42:24;100111.25;;;12.72;65.11
28935;BME280;16044;52.726;-2.108;2022-10-16T11:47:56;100114.59;;;12.74;66.18
28935;BME280;16044;52.726;-2.108;2022-10-16T11:50:34;100104.81;;;12.79;66.29
28935;BME280;16044;52.726;-2.108;2022-10-16T11:53:39;100107.59;;;12.86;66.22
28935;BME280;16044;52.726;-2.108;2022-10-16T11:56:19;100115.31;;;12.89;65.11
28935;BME280;16044;52.726;-2.108;2022-10-16T11:59:07;100107.41;;;12.94;63.84
28935;BME280;16044;52.726;-2.108;2022-10-16T12:01:58;100104.50;;;12.96;64.72
28935;BME280;16044;52.726;-2.108;2022-10-16T12:08:02;100106.19;;;13.03;63.47
28935;BME280;16044;52.726;-2.108;2022-10-16T12:10:32;100099.09;;;13.09;63.89
28935;BME280;16044;52.726;-2.108;2022-10-16T12:13:40;100097.84;;;13.12;64.02
28935;BME280;16044;52.726;-2.108;2022-10-16T12:18:40;100097.91;;;13.25;63.01
28935;BME280;16044;52.726;-2.108;2022-10-16T12:21:10;100102.59;;;13.31;63.86
28935;BME280;16044;52.726;-2.108;2022-10-16T12:23:47;100105.94;;;13.40;63.38
28935;BME280;16044;52.726;-2.108;2022-10-16T12:26:38;100116.88;;;13.47;62.40
28935;BME280;16044;52.726;-2.108;2022-10-16T12:32:21;100103.50;;;13.72;61.93
28935;BME280;16044;52.726;-2.108;2022-10-16T12:35:26;100103.34;;;13.80;61.18
28935;BME280;16044;52.726;-2.108;2022-10-16T12:38:05;100101.03;;;13.90;61.98
28935;BME280;16044;52.726;-2.108;2022-10-16T12:40:36;100098.94;;;13.92;60.04
28935;BME280;16044;52.726;-2.108;2022-10-16T12:46:02;100091.38;;;13.94;59.83
28935;BME280;16044;52.726;-2.108;2022-10-16T12:48:37;100093.91;;;13.96;60.91
28935;BME280;16044;52.726;-2.108;2022-10-16T12:51:35;100107.53;;;13.96;61.32
28935;BME280;16044;52.726;-2.108;2022-10-16T12:54:16;100101.47;;;13.94;60.63
28935;BME280;16044;52.726;-2.108;2022-10-16T13:22:24;100078.59;;;14.15;57.65
28935;BME280;16044;52.726;-2.108;2022-10-16T13:25:08;100087.41;;;14.23;59.40
28935;BME280;16044;52.726;-2.108;2022-10-16T13:28:01;100090.56;;;14.20;55.92
28935;BME280;16044;52.726;-2.108;2022-10-16T13:30:38;100088.84;;;14.33;59.15
28935;BME280;16044;52.726;-2.108;2022-10-16T13:33:14;100086.13;;;14.33;58.91
28935;BME280;16044;52.726;-2.108;2022-10-16T13:35:52;100100.59;;;14.27;58.57
28935;BME280;16044;52.726;-2.108;2022-10-16T13:38:23;100093.50;;;14.19;58.92
28935;BME280;16044;52.726;-2.108;2022-10-16T13:41:04;100098.09;;;14.12;59.30
28935;BME280;16044;52.726;-2.108;2022-10-16T13:43:44;100105.03;;;14.01;59.76
28935;BME280;16044;52.726;-2.108;2022-10-16T13:48:59;100102.69;;;13.84;59.06
28935;BME280;16044;52.726;-2.108;2022-10-16T13:51:28;100106.88;;;13.80;59.78
28935;BME280;16044;52.726;-2.108;2022-10-16T13:53:56;100113.16;;;13.74;59.71
28935;BME280;16044;52.726;-2.108;2022-10-16T13:56:32;100106.25;;;13.78;59.88
28935;BME280;16044;52.726;-2.108;2022-10-16T13:59:01;100100.19;;;13.83;59.56
28935;BME280;16044;52.726;-2.108;2022-10-16T14:01:41;100096.00;;;13.80;59.69
28935;BME280;16044;52.726;-2.108;2022-10-16T14:04:12;100096.81;;;13.81;59.68
28935;BME280;16044;52.726;-2.108;2022-10-16T14:06:42;100096.63;;;13.82;59.73
28935;BME280;16044;52.726;-2.108;2022-10-16T14:09:29;100085.94;;;13.81;59.23
28935;BME280;16044;52.726;-2.108;2022-10-16T14:12:00;100085.94;;;13.88;59.67
28935;BME280;16044;52.726;-2.108;2022-10-16T14:14:39;100076.50;;;13.83;58.99
28935;BME280;16044;52.726;-2.108;2022-10-16T14:17:23;100076.94;;;13.80;58.73
28935;BME280;16044;52.726;-2.108;2022-10-16T14:19:58;100071.06;;;13.77;58.92
28935;BME280;16044;52.726;-2.108;2022-10-16T14:22:38;100073.34;;;13.73;59.11
28935;BME280;16044;52.726;-2.108;2022-10-16T14:28:13;100073.34;;;13.73;59.27
28935;BME280;16044;52.726;-2.108;2022-10-16T14:30:58;100073.38;;;13.80;59.27
28935;BME280;16044;52.726;-2.108;2022-10-16T14:38:31;100072.94;;;13.90;59.11
28935;BME280;16044;52.726;-2.108;2022-10-16T14:40:59;100066.66;;;13.89;59.60
28935;BME280;16044;52.726;-2.108;2022-10-16T14:43:36;100059.09;;;13.84;59.66
28935;BME280;16044;52.726;-2.108;2022-10-16T14:46:12;100048.63;;;13.81;59.36
28935;BME280;16044;52.726;-2.108;2022-10-16T14:48:42;100043.78;;;13.83;59.43
28935;BME280;16044;52.726;-2.108;2022-10-16T14:51:15;100045.28;;;13.79;59.07
28935;BME280;16044;52.726;-2.108;2022-10-16T14:53:43;100046.97;;;13.80;59.43
28935;BME280;16044;52.726;-2.108;2022-10-16T14:56:19;100041.91;;;13.77;59.57
28935;BME280;16044;52.726;-2.108;2022-10-16T14:58:50;100039.41;;;13.82;59.49
28935;BME280;16044;52.726;-2.108;2022-10-16T15:01:17;100035.00;;;13.81;59.98